createdAt,value
2018-08-04T00:00:00.560Z,20.62
2018-08-04T00:02:29.373Z,20.52
2018-08-04T00:04:58.189Z,20.52
2018-08-04T00:07:27.270Z,20.65
2018-08-04T00:09:56.158Z,20.54
2018-08-04T00:12:25.000Z,20.60
2018-08-04T00:14:53.855Z,20.47
2018-08-04T00:17:22.765Z,20.52
2018-08-04T00:19:51.706Z,20.36
2018-08-04T00:22:20.475Z,20.52
2018-08-04T00:24:49.111Z,20.47
2018-08-04T00:27:17.870Z,20.37
2018-08-04T00:29:46.680Z,20.36
2018-08-04T00:32:15.586Z,20.44
2018-08-04T00:34:44.398Z,20.47
2018-08-04T00:37:13.214Z,20.26
2018-08-04T00:39:41.798Z,20.44
2018-08-04T00:42:10.482Z,20.44
2018-08-04T00:44:39.431Z,20.43
2018-08-04T00:47:08.253Z,20.43
2018-08-04T00:49:37.047Z,20.44
2018-08-04T00:52:05.946Z,20.47
2018-08-04T00:54:34.754Z,20.28
2018-08-04T00:57:03.762Z,20.28
2018-08-04T00:59:32.551Z,20.33
2018-08-04T01:02:01.318Z,20.33
2018-08-04T01:04:29.990Z,20.15
2018-08-04T01:06:58.785Z,20.15
2018-08-04T01:09:27.654Z,20.24
2018-08-04T01:11:56.702Z,20.28
2018-08-04T01:14:25.531Z,20.13
2018-08-04T01:16:54.383Z,20.13
2018-08-04T01:19:23.568Z,20.24
2018-08-04T01:21:52.722Z,20.25
2018-08-04T01:24:21.559Z,20.16
2018-08-04T01:26:50.323Z,19.98
2018-08-04T01:29:19.162Z,20.04
2018-08-04T01:31:48.262Z,20.09
2018-08-04T01:34:17.138Z,19.99
2018-08-04T01:36:45.908Z,20.05
2018-08-04T01:39:14.552Z,20.05
2018-08-04T01:41:43.332Z,19.53
2018-08-04T01:44:12.117Z,20.00
2018-08-04T01:46:41.051Z,19.99
2018-08-04T01:49:09.873Z,19.92
2018-08-04T01:51:38.688Z,19.96
2018-08-04T01:54:07.460Z,19.70
2018-08-04T01:56:36.521Z,19.95
2018-08-04T01:59:05.424Z,19.92
2018-08-04T02:01:34.232Z,19.99
2018-08-04T02:04:03.034Z,19.83
2018-08-04T02:06:31.932Z,19.82
2018-08-04T02:09:00.719Z,19.84
2018-08-04T02:11:29.628Z,19.69
2018-08-04T02:13:58.400Z,19.66
2018-08-04T02:16:27.258Z,19.46
2018-08-04T02:18:56.007Z,19.46
2018-08-04T02:21:25.059Z,19.31
2018-08-04T02:23:53.910Z,19.27
2018-08-04T02:26:22.767Z,19.35
2018-08-04T02:28:51.536Z,19.35
2018-08-04T02:31:20.447Z,19.38
2018-08-04T02:33:49.199Z,19.44
2018-08-04T02:36:18.083Z,19.33
2018-08-04T02:38:46.782Z,19.27
2018-08-04T02:41:15.637Z,19.23
2018-08-04T02:43:44.446Z,19.38
2018-08-04T02:46:13.294Z,19.33
2018-08-04T02:48:42.053Z,19.38
2018-08-04T02:51:10.831Z,19.47
2018-08-04T02:53:39.869Z,19.37
2018-08-04T02:56:08.681Z,19.20
2018-08-04T02:58:37.484Z,19.33
2018-08-04T03:01:06.465Z,19.38
2018-08-04T03:03:35.268Z,19.37
2018-08-04T03:06:04.317Z,19.39
2018-08-04T03:08:33.187Z,19.36
2018-08-04T03:11:01.783Z,19.32
2018-08-04T03:13:30.663Z,19.45
2018-08-04T03:15:59.496Z,19.26
2018-08-04T03:18:28.342Z,19.38
2018-08-04T03:20:57.439Z,19.36
2018-08-04T03:23:26.267Z,19.31
2018-08-04T03:25:54.909Z,19.27
2018-08-04T03:28:23.716Z,19.40
2018-08-04T03:30:52.531Z,19.23
2018-08-04T03:33:21.338Z,19.31
2018-08-04T03:35:50.147Z,18.97
2018-08-04T03:38:19.002Z,19.03
2018-08-04T03:40:47.819Z,18.97
2018-08-04T03:43:16.754Z,19.04
2018-08-04T03:45:45.636Z,18.87
2018-08-04T03:48:14.268Z,18.80
2018-08-04T03:50:42.958Z,18.96
2018-08-04T03:53:11.794Z,19.00
2018-08-04T03:55:40.413Z,18.90
2018-08-04T03:58:09.491Z,18.88
2018-08-04T04:00:38.444Z,18.86
2018-08-04T04:03:07.352Z,18.79
2018-08-04T04:05:36.130Z,18.80
2018-08-04T04:08:05.007Z,18.70
2018-08-04T04:10:33.957Z,18.87
2018-08-04T04:13:02.739Z,18.97
2018-08-04T04:15:31.662Z,19.01
2018-08-04T04:18:00.430Z,19.15
2018-08-04T04:20:29.239Z,19.10
2018-08-04T04:22:58.067Z,19.45
2018-08-04T04:25:27.095Z,19.42
2018-08-04T04:28:02.095Z,19.58
2018-08-04T04:30:30.879Z,19.21
2018-08-04T04:32:59.689Z,19.34
2018-08-04T04:35:28.483Z,19.45
2018-08-04T04:37:57.353Z,19.55
2018-08-04T04:40:26.179Z,19.51
2018-08-04T04:42:54.834Z,19.53
2018-08-04T04:45:23.655Z,19.52
2018-08-04T04:47:52.264Z,19.55
2018-08-04T04:50:21.291Z,19.53
2018-08-04T04:52:50.342Z,19.33
2018-08-04T04:55:19.103Z,19.21
2018-08-04T04:57:47.946Z,19.37
2018-08-04T05:00:16.712Z,19.16
2018-08-04T05:02:45.548Z,19.54
2018-08-04T05:05:14.296Z,19.61
2018-08-04T05:07:43.188Z,19.70
2018-08-04T05:10:11.962Z,19.66
2018-08-04T05:12:40.549Z,19.61
2018-08-04T05:15:09.560Z,19.95
2018-08-04T05:17:38.460Z,20.06
2018-08-04T05:20:07.731Z,20.04
2018-08-04T05:22:36.536Z,20.16
2018-08-04T05:25:05.928Z,20.21
2018-08-04T05:27:34.783Z,20.42
2018-08-04T05:30:04.099Z,20.35
2018-08-04T05:32:32.917Z,20.32
2018-08-04T05:35:01.712Z,20.27
2018-08-04T05:37:30.603Z,20.34
2018-08-04T05:39:59.417Z,20.62
2018-08-04T05:42:28.177Z,20.48
2018-08-04T05:44:57.013Z,20.40
2018-08-04T05:47:25.798Z,20.15
2018-08-04T05:49:54.602Z,20.60
2018-08-04T05:52:23.415Z,20.66
2018-08-04T05:54:52.423Z,20.40
2018-08-04T05:57:21.085Z,20.54
2018-08-04T05:59:49.890Z,20.49
2018-08-04T06:02:18.485Z,20.60
2018-08-04T06:04:47.404Z,20.57
2018-08-04T06:07:16.158Z,20.61
2018-08-04T06:09:44.821Z,20.67
2018-08-04T06:12:13.614Z,20.76
2018-08-04T06:14:42.470Z,20.82
2018-08-04T06:17:11.322Z,20.74
2018-08-04T06:19:40.297Z,20.72
2018-08-04T06:22:09.189Z,20.66
2018-08-04T06:24:37.987Z,20.76
2018-08-04T06:27:06.846Z,20.92
2018-08-04T06:29:35.717Z,21.02
2018-08-04T06:32:04.962Z,21.50
2018-08-04T06:34:33.787Z,21.90
2018-08-04T06:37:02.687Z,22.05
2018-08-04T06:39:31.496Z,22.23
2018-08-04T06:42:00.385Z,22.77
2018-08-04T06:44:29.270Z,23.02
2018-08-04T06:46:58.279Z,23.11
2018-08-04T06:49:27.393Z,23.21
2018-08-04T06:51:56.255Z,22.92
2018-08-04T06:54:24.926Z,23.87
2018-08-04T06:56:53.818Z,23.90
2018-08-04T06:59:22.619Z,24.05
2018-08-04T07:01:51.700Z,24.01
2018-08-04T07:04:20.515Z,24.39
2018-08-04T07:06:49.436Z,24.27
2018-08-04T07:09:18.078Z,24.44
2018-08-04T07:11:46.937Z,23.99
2018-08-04T07:14:15.720Z,24.48
2018-08-04T07:16:45.690Z,24.97
2018-08-04T07:19:14.364Z,25.15
2018-08-04T07:21:43.189Z,25.02
2018-08-04T07:24:11.998Z,25.58
2018-08-04T07:26:40.760Z,25.69
2018-08-04T07:29:09.593Z,25.73
2018-08-04T07:31:38.446Z,25.51
2018-08-04T07:34:07.399Z,26.26
2018-08-04T07:36:36.231Z,25.88
2018-08-04T07:39:07.898Z,26.59
2018-08-04T07:41:36.701Z,26.55
2018-08-04T07:44:06.092Z,26.72
2018-08-04T07:46:35.731Z,26.40
2018-08-04T07:49:04.466Z,26.65
2018-08-04T07:51:33.324Z,26.51
2018-08-04T07:54:02.095Z,26.56
2018-08-04T07:56:31.083Z,26.83
2018-08-04T07:59:00.455Z,27.15
2018-08-04T08:01:29.390Z,27.40
2018-08-04T08:03:58.131Z,27.97
2018-08-04T08:06:27.050Z,27.54
2018-08-04T08:08:55.950Z,27.47
2018-08-04T08:11:24.826Z,27.14
2018-08-04T08:13:53.607Z,28.14
2018-08-04T08:16:22.670Z,28.33
2018-08-04T08:18:51.483Z,28.51
2018-08-04T08:21:20.523Z,28.72
2018-08-04T08:23:49.181Z,28.09
2018-08-04T08:26:17.969Z,28.43
2018-08-04T08:28:46.798Z,28.65
2018-08-04T08:31:15.480Z,28.33
2018-08-04T08:33:44.398Z,28.05
2018-08-04T08:36:13.272Z,28.35
2018-08-04T08:38:41.914Z,28.73
2018-08-04T08:41:10.755Z,28.72
2018-08-04T08:43:39.575Z,28.56
2018-08-04T08:46:08.358Z,28.55
2018-08-04T08:48:37.196Z,28.63
2018-08-04T08:51:06.094Z,29.03
2018-08-04T08:53:35.066Z,29.35
2018-08-04T08:56:03.808Z,29.46
2018-08-04T08:58:32.782Z,29.30
2018-08-04T09:01:01.421Z,28.05
2018-08-04T09:03:30.257Z,28.44
2018-08-04T09:05:59.039Z,28.62
2018-08-04T09:08:27.918Z,29.00
2018-08-04T09:11:01.317Z,29.31
2018-08-04T09:13:30.490Z,29.44
2018-08-04T09:15:59.291Z,29.81
2018-08-04T09:18:28.135Z,29.43
2018-08-04T09:20:57.102Z,29.49
2018-08-04T09:23:25.991Z,29.29
2018-08-04T09:25:54.847Z,29.87
2018-08-04T09:28:23.674Z,29.19
2018-08-04T09:30:52.522Z,29.74
2018-08-04T09:33:21.702Z,29.83
2018-08-04T09:35:50.515Z,29.23
2018-08-04T09:38:19.293Z,29.74
2018-08-04T09:40:48.177Z,29.09
2018-08-04T09:43:16.940Z,29.96
2018-08-04T09:45:51.791Z,30.24
2018-08-04T09:48:20.600Z,30.63
2018-08-04T09:50:49.435Z,30.44
2018-08-04T09:53:18.231Z,30.38
2018-08-04T09:55:47.198Z,29.30
2018-08-04T09:58:15.963Z,28.76
2018-08-04T10:00:50.470Z,28.10
2018-08-04T10:03:19.273Z,28.86
2018-08-04T10:05:48.015Z,29.54
2018-08-04T10:08:16.637Z,29.57
2018-08-04T10:10:45.415Z,28.99
2018-08-04T10:13:14.288Z,29.39
2018-08-04T10:15:43.055Z,28.92
2018-08-04T10:18:11.933Z,28.66
2018-08-04T10:20:40.707Z,28.88
2018-08-04T10:23:09.550Z,29.27
2018-08-04T10:25:38.347Z,29.34
2018-08-04T10:28:07.231Z,28.97
2018-08-04T10:30:36.111Z,29.16
2018-08-04T10:33:05.009Z,29.71
2018-08-04T10:35:33.808Z,29.91
2018-08-04T10:38:02.450Z,29.84
2018-08-04T10:40:31.222Z,29.46
2018-08-04T10:43:00.139Z,29.55
2018-08-04T10:45:35.094Z,29.75
2018-08-04T10:48:04.040Z,29.87
2018-08-04T10:50:32.806Z,30.14
2018-08-04T10:53:01.710Z,29.51
2018-08-04T10:55:30.527Z,30.17
2018-08-04T10:57:59.398Z,30.57
2018-08-04T11:00:28.194Z,30.88
2018-08-04T11:02:57.049Z,29.80
2018-08-04T11:05:26.266Z,29.74
2018-08-04T11:07:55.177Z,29.31
2018-08-04T11:10:23.996Z,29.38
2018-08-04T11:12:52.788Z,29.62
2018-08-04T11:15:21.716Z,29.90
2018-08-04T11:17:50.592Z,29.90
2018-08-04T11:20:19.436Z,29.40
2018-08-04T11:22:48.230Z,29.89
2018-08-04T11:25:17.059Z,29.66
2018-08-04T11:27:46.132Z,29.83
2018-08-04T11:30:15.072Z,30.05
2018-08-04T11:32:43.653Z,29.23
2018-08-04T11:35:12.488Z,29.35
2018-08-04T11:37:41.268Z,29.44
2018-08-04T11:40:10.089Z,29.42
2018-08-04T11:42:38.995Z,29.87
2018-08-04T11:45:07.837Z,29.35
2018-08-04T11:47:36.763Z,29.39
2018-08-04T11:50:05.955Z,29.42
2018-08-04T11:52:35.020Z,29.38
2018-08-04T11:55:04.453Z,29.73
2018-08-04T11:57:33.216Z,29.41
2018-08-04T12:00:02.002Z,29.82
2018-08-04T12:02:30.919Z,29.85
2018-08-04T12:04:59.694Z,29.57
2018-08-04T12:07:28.870Z,29.89
2018-08-04T12:09:57.739Z,30.28
2018-08-04T12:12:26.579Z,30.24
2018-08-04T12:14:55.379Z,30.57
2018-08-04T12:17:24.437Z,30.36
2018-08-04T12:19:53.299Z,29.86
2018-08-04T12:22:22.330Z,30.26
2018-08-04T12:24:51.699Z,29.89
2018-08-04T12:27:20.652Z,30.21
2018-08-04T12:29:49.410Z,30.34
2018-08-04T12:32:18.250Z,30.22
2018-08-04T12:34:47.066Z,29.91
2018-08-04T12:37:15.868Z,29.54
2018-08-04T12:39:44.519Z,29.74
2018-08-04T12:42:13.303Z,29.67
2018-08-04T12:44:42.561Z,30.14
2018-08-04T12:47:11.414Z,29.72
2018-08-04T12:49:40.238Z,29.71
2018-08-04T12:52:09.028Z,29.80
2018-08-04T12:54:37.893Z,29.60
2018-08-04T12:57:06.867Z,29.67
2018-08-04T12:59:35.793Z,29.99
2018-08-04T13:02:04.626Z,30.18
2018-08-04T13:04:33.465Z,30.44
2018-08-04T13:07:02.308Z,30.28
2018-08-04T13:09:30.957Z,30.20
2018-08-04T13:11:59.664Z,29.72
2018-08-04T13:14:28.246Z,29.58
2018-08-04T13:16:57.250Z,29.94
2018-08-04T13:19:26.075Z,29.96
2018-08-04T13:21:55.040Z,29.71
2018-08-04T13:24:23.809Z,29.69
2018-08-04T13:26:52.634Z,29.76
2018-08-04T13:29:21.747Z,29.68
2018-08-04T13:31:50.551Z,29.96
2018-08-04T13:34:19.522Z,29.94
2018-08-04T13:36:48.630Z,29.77
2018-08-04T13:39:17.448Z,29.47
2018-08-04T13:41:46.155Z,29.39
2018-08-04T13:44:14.955Z,29.36
2018-08-04T13:46:43.938Z,29.59
2018-08-04T13:49:12.537Z,29.61
2018-08-04T13:51:41.350Z,29.63
2018-08-04T13:54:10.171Z,29.69
2018-08-04T13:56:39.286Z,29.51
2018-08-04T13:59:08.346Z,29.63
2018-08-04T14:01:37.177Z,29.54
2018-08-04T14:04:05.841Z,29.14
2018-08-04T14:06:34.616Z,29.20
2018-08-04T14:09:04.984Z,29.21
2018-08-04T14:11:33.855Z,29.18
2018-08-04T14:14:02.982Z,29.16
2018-08-04T14:16:31.789Z,29.42
2018-08-04T14:19:00.626Z,29.56
2018-08-04T14:21:30.114Z,29.26
2018-08-04T14:23:59.137Z,29.13
2018-08-04T14:26:27.839Z,29.48
2018-08-04T14:28:56.939Z,29.24
2018-08-04T14:31:25.653Z,29.12
2018-08-04T14:33:54.608Z,29.24
2018-08-04T14:36:24.116Z,29.33
2018-08-04T14:38:53.311Z,29.52
2018-08-04T14:41:22.108Z,29.46
2018-08-04T14:43:50.741Z,29.51
2018-08-04T14:46:19.670Z,29.02
2018-08-04T14:48:48.572Z,29.09
2018-08-04T14:51:18.244Z,28.94
2018-08-04T14:53:47.081Z,28.93
2018-08-04T14:56:15.765Z,29.30
2018-08-04T14:58:44.365Z,29.17
2018-08-04T15:01:13.335Z,29.43
2018-08-04T15:03:42.097Z,29.45
2018-08-04T15:06:10.954Z,29.56
2018-08-04T15:08:39.733Z,29.20
2018-08-04T15:11:08.595Z,29.02
2018-08-04T15:13:37.726Z,29.07
2018-08-04T15:16:06.650Z,28.97
2018-08-04T15:18:35.433Z,28.88
2018-08-04T15:21:04.344Z,28.84
2018-08-04T15:23:33.149Z,28.99
2018-08-04T15:26:02.057Z,28.99
2018-08-04T15:28:30.720Z,29.03
2018-08-04T15:30:59.583Z,28.99
2018-08-04T15:33:28.362Z,28.93
2018-08-04T15:35:57.282Z,28.72
2018-08-04T15:38:26.135Z,28.66
2018-08-04T15:40:54.937Z,28.61
2018-08-04T15:43:23.751Z,28.57
2018-08-04T15:45:58.513Z,28.60
2018-08-04T15:48:27.410Z,28.32
2018-08-04T15:50:56.164Z,28.49
2018-08-04T15:53:24.975Z,28.47
2018-08-04T15:55:53.722Z,28.30
2018-08-04T15:58:22.521Z,28.41
2018-08-04T16:00:51.154Z,28.50
2018-08-04T16:03:19.958Z,28.58
2018-08-04T16:05:48.567Z,28.01
2018-08-04T16:08:17.390Z,28.21
2018-08-04T16:10:46.154Z,27.88
2018-08-04T16:13:15.127Z,27.85
2018-08-04T16:15:43.960Z,27.65
2018-08-04T16:18:12.820Z,27.40
2018-08-04T16:20:41.571Z,27.58
2018-08-04T16:23:10.364Z,27.45
2018-08-04T16:25:39.254Z,27.60
2018-08-04T16:28:08.048Z,27.65
2018-08-04T16:30:36.885Z,27.39
2018-08-04T16:33:05.691Z,27.23
2018-08-04T16:35:34.514Z,26.96
2018-08-04T16:38:03.367Z,27.09
2018-08-04T16:40:32.207Z,27.14
2018-08-04T16:43:00.814Z,27.08
2018-08-04T16:45:29.771Z,26.83
2018-08-04T16:47:58.546Z,26.74
2018-08-04T16:50:27.451Z,26.79
2018-08-04T16:52:56.548Z,26.68
2018-08-04T16:55:25.414Z,26.64
2018-08-04T16:57:54.195Z,26.24
2018-08-04T17:00:22.987Z,26.18
2018-08-04T17:02:51.685Z,26.17
2018-08-04T17:05:20.470Z,26.15
2018-08-04T17:07:49.279Z,26.00
2018-08-04T17:10:18.396Z,25.98
2018-08-04T17:12:47.209Z,25.79
2018-08-04T17:15:16.183Z,25.96
2018-08-04T17:17:44.898Z,25.81
2018-08-04T17:20:13.688Z,25.75
2018-08-04T17:22:42.511Z,25.58
2018-08-04T17:25:11.334Z,25.43
2018-08-04T17:27:40.164Z,25.33
2018-08-04T17:30:08.964Z,25.34
2018-08-04T17:32:37.774Z,25.21
2018-08-04T17:35:06.638Z,25.18
2018-08-04T17:37:35.641Z,25.16
2018-08-04T17:40:04.421Z,25.14
2018-08-04T17:42:33.304Z,25.09
2018-08-04T17:45:06.751Z,25.14
2018-08-04T17:47:35.620Z,25.01
2018-08-04T17:50:04.708Z,24.94
2018-08-04T17:52:34.032Z,24.99
2018-08-04T17:55:02.848Z,24.95
2018-08-04T17:57:31.704Z,24.89
2018-08-04T18:00:00.940Z,24.98
2018-08-04T18:02:29.792Z,24.78
2018-08-04T18:04:58.640Z,24.68
2018-08-04T18:07:27.541Z,24.42
2018-08-04T18:09:56.323Z,24.52
2018-08-04T18:12:25.095Z,24.38
2018-08-04T18:14:53.751Z,24.15
2018-08-04T18:17:22.843Z,24.12
2018-08-04T18:19:51.663Z,24.07
2018-08-04T18:22:20.459Z,23.93
2018-08-04T18:24:49.294Z,23.85
2018-08-04T18:27:18.069Z,23.87
2018-08-04T18:29:47.042Z,23.73
2018-08-04T18:32:15.866Z,23.80
2018-08-04T18:34:44.821Z,23.71
2018-08-04T18:37:13.490Z,23.53
2018-08-04T18:39:42.363Z,23.63
2018-08-04T18:42:11.339Z,23.59
2018-08-04T18:44:40.268Z,23.56
2018-08-04T18:47:09.725Z,23.45
2018-08-04T18:49:38.638Z,23.46
2018-08-04T18:52:07.478Z,23.30
2018-08-04T18:54:36.405Z,23.08
2018-08-04T18:57:05.234Z,23.06
2018-08-04T18:59:34.910Z,23.02
2018-08-04T19:02:03.750Z,22.81
2018-08-04T19:04:33.041Z,22.93
2018-08-04T19:07:02.022Z,22.82
2018-08-04T19:09:31.410Z,22.82
2018-08-04T19:12:00.190Z,22.69
2018-08-04T19:14:29.019Z,22.60
2018-08-04T19:17:00.728Z,22.47
2018-08-04T19:19:30.890Z,22.48
2018-08-04T19:22:00.013Z,22.48
2018-08-04T19:24:28.642Z,22.31
2018-08-04T19:26:57.411Z,22.48
2018-08-04T19:29:26.390Z,22.47
2018-08-04T19:31:55.223Z,22.50
2018-08-04T19:34:24.019Z,22.49
2018-08-04T19:36:52.758Z,22.40
2018-08-04T19:39:21.462Z,22.38
2018-08-04T19:41:50.238Z,22.18
2018-08-04T19:44:19.114Z,22.14
2018-08-04T19:46:48.008Z,22.03
2018-08-04T19:49:16.854Z,21.93
2018-08-04T19:51:45.664Z,21.90
2018-08-04T19:54:14.455Z,21.94
2018-08-04T19:56:43.335Z,21.89
2018-08-04T19:59:12.152Z,21.88
2018-08-04T20:01:40.983Z,21.70
2018-08-04T20:04:09.788Z,21.56
2018-08-04T20:06:38.683Z,21.65
2018-08-04T20:09:08.943Z,21.63
2018-08-04T20:11:37.943Z,21.52
2018-08-04T20:14:06.946Z,21.59
2018-08-04T20:16:35.747Z,21.41
2018-08-04T20:19:04.601Z,21.38
2018-08-04T20:21:33.471Z,21.32
2018-08-04T20:24:02.751Z,21.44
2018-08-04T20:26:31.528Z,21.40
2018-08-04T20:29:00.483Z,21.43
2018-08-04T20:31:29.606Z,21.39
2018-08-04T20:33:58.539Z,21.22
2018-08-04T20:36:27.610Z,21.23
2018-08-04T20:38:57.024Z,21.23
2018-08-04T20:41:25.735Z,21.15
2018-08-04T20:43:54.547Z,21.05
2018-08-04T20:46:23.489Z,21.15
2018-08-04T20:48:52.591Z,21.09
2018-08-04T20:51:21.397Z,21.13
2018-08-04T20:53:50.199Z,21.05
2018-08-04T20:56:19.104Z,20.97
2018-08-04T20:58:48.058Z,20.85
2018-08-04T21:01:33.663Z,20.79
2018-08-04T21:04:02.886Z,20.83
2018-08-04T21:06:31.730Z,20.87
2018-08-04T21:09:00.570Z,20.86
2018-08-04T21:11:29.551Z,20.76
2018-08-04T21:13:58.400Z,20.55
2018-08-04T21:16:27.246Z,20.65
2018-08-04T21:18:56.060Z,20.60
2018-08-04T21:21:25.069Z,20.62
2018-08-04T21:23:53.670Z,20.60
2018-08-04T21:26:22.487Z,20.57
2018-08-04T21:28:51.365Z,20.48
2018-08-04T21:31:20.243Z,20.53
2018-08-04T21:33:49.103Z,20.54
2018-08-04T21:36:17.993Z,20.44
2018-08-04T21:38:46.902Z,20.54
2018-08-04T21:41:15.566Z,20.53
2018-08-04T21:43:44.353Z,20.55
2018-08-04T21:46:13.279Z,20.40
2018-08-04T21:48:42.299Z,20.38
2018-08-04T21:51:11.147Z,20.37
2018-08-04T21:53:39.992Z,20.50
2018-08-04T21:56:08.883Z,20.14
2018-08-04T21:58:37.936Z,20.14
2018-08-04T22:01:12.074Z,20.27
2018-08-04T22:03:42.495Z,20.30
2018-08-04T22:06:11.748Z,20.38
2018-08-04T22:08:57.461Z,20.35
2018-08-04T22:11:26.076Z,20.35
2018-08-04T22:13:54.922Z,20.27
2018-08-04T22:16:23.734Z,20.46
2018-08-04T22:18:53.055Z,20.04
2018-08-04T22:21:21.835Z,20.13
2018-08-04T22:23:50.641Z,20.23
2018-08-04T22:26:19.448Z,20.30
2018-08-04T22:28:48.278Z,20.07
2018-08-04T22:31:17.208Z,20.29
2018-08-04T22:33:53.158Z,20.36
2018-08-04T22:36:22.208Z,20.33
2018-08-04T22:38:51.012Z,20.30
2018-08-04T22:41:20.044Z,20.29
2018-08-04T22:43:48.824Z,20.16
2018-08-04T22:46:17.653Z,20.15
2018-08-04T22:48:47.836Z,20.21
2018-08-04T22:51:22.720Z,20.26
2018-08-04T22:53:51.656Z,20.27
2018-08-04T22:56:20.258Z,20.10
2018-08-04T22:58:49.119Z,20.29
2018-08-04T23:01:17.968Z,20.35
2018-08-04T23:06:15.643Z,20.28
2018-08-04T23:08:44.508Z,20.26
2018-08-04T23:11:13.311Z,20.32
2018-08-04T23:13:42.232Z,20.35
2018-08-04T23:16:11.127Z,20.03
2018-08-04T23:18:40.099Z,20.05
2018-08-04T23:21:08.995Z,20.23
2018-08-04T23:23:37.905Z,20.21
2018-08-04T23:26:06.841Z,20.16
2018-08-04T23:28:35.695Z,20.10
2018-08-04T23:31:04.604Z,20.06
2018-08-04T23:33:33.455Z,20.13
2018-08-04T23:36:02.272Z,20.04
2018-08-04T23:38:31.129Z,20.06
2018-08-04T23:40:59.949Z,20.01
2018-08-04T23:43:28.804Z,19.92
2018-08-04T23:45:57.851Z,19.94
2018-08-04T23:48:26.770Z,19.96
2018-08-04T23:50:55.596Z,19.90
2018-08-04T23:53:24.577Z,19.93
2018-08-04T23:55:53.395Z,19.90
2018-08-04T23:58:22.184Z,19.79
